createdAt,value
2019-03-20T00:00:34.887Z,-1.20
2019-03-20T00:03:05.854Z,-1.20
2019-03-20T00:05:36.557Z,-1.30
2019-03-20T00:08:07.140Z,-1.30
2019-03-20T00:10:37.774Z,-1.40
2019-03-20T00:13:08.387Z,-1.50
2019-03-20T00:15:39.079Z,-1.50
2019-03-20T00:18:09.692Z,-1.50
2019-03-20T00:20:40.329Z,-1.50
2019-03-20T00:23:10.907Z,-1.50
2019-03-20T00:25:42.049Z,-1.50
2019-03-20T00:28:12.702Z,-1.50
2019-03-20T00:30:43.273Z,-1.60
2019-03-20T00:33:13.971Z,-1.50
2019-03-20T00:35:44.612Z,-1.60
2019-03-20T00:38:15.233Z,-1.60
2019-03-20T00:40:45.867Z,-1.60
2019-03-20T00:43:16.487Z,-1.70
2019-03-20T00:45:47.078Z,-1.70
2019-03-20T00:48:17.711Z,-1.70
2019-03-20T00:50:48.325Z,-1.70
2019-03-20T00:53:18.924Z,-1.70
2019-03-20T00:55:49.605Z,-1.80
2019-03-20T00:58:20.230Z,-1.80
2019-03-20T01:00:50.972Z,-1.80
2019-03-20T01:03:21.620Z,-1.80
2019-03-20T01:05:52.319Z,-1.80
2019-03-20T01:08:22.956Z,-1.80
2019-03-20T01:10:53.635Z,-1.90
2019-03-20T01:13:24.309Z,-1.80
2019-03-20T01:15:54.999Z,-1.90
2019-03-20T01:18:25.644Z,-1.90
2019-03-20T01:20:56.282Z,-1.90
2019-03-20T01:23:26.875Z,-1.90
2019-03-20T01:25:57.503Z,-1.90
2019-03-20T01:28:28.069Z,-1.90
2019-03-20T01:30:58.662Z,-1.90
2019-03-20T01:33:29.454Z,-2.00
2019-03-20T01:36:00.042Z,-1.90
2019-03-20T01:38:30.885Z,-2.00
2019-03-20T01:41:01.481Z,-2.00
2019-03-20T01:43:32.114Z,-2.00
2019-03-20T01:46:02.710Z,-2.00
2019-03-20T01:48:33.345Z,-2.00
2019-03-20T01:51:20.627Z,-2.00
2019-03-20T01:53:51.360Z,-2.10
2019-03-20T01:56:22.101Z,-2.00
2019-03-20T01:58:52.663Z,-2.00
2019-03-20T02:01:23.257Z,-2.10
2019-03-20T02:03:53.888Z,-2.10
2019-03-20T02:06:24.478Z,-2.10
2019-03-20T02:08:55.104Z,-2.10
2019-03-20T02:11:25.754Z,-2.10
2019-03-20T02:13:56.363Z,-2.10
2019-03-20T02:16:27.132Z,-2.20
2019-03-20T02:18:57.799Z,-2.20
2019-03-20T02:21:28.413Z,-2.30
2019-03-20T02:23:59.006Z,-2.30
2019-03-20T02:26:29.613Z,-2.30
2019-03-20T02:29:00.177Z,-2.20
2019-03-20T02:31:30.756Z,-2.30
2019-03-20T02:34:01.412Z,-2.30
2019-03-20T02:36:32.010Z,-2.30
2019-03-20T02:39:02.826Z,-2.40
2019-03-20T02:41:33.461Z,-2.30
2019-03-20T02:44:04.187Z,-2.40
2019-03-20T02:46:34.777Z,-2.40
2019-03-20T02:49:05.410Z,-2.50
2019-03-20T02:51:35.999Z,-2.40
2019-03-20T02:54:06.601Z,-2.50
2019-03-20T02:56:37.398Z,-2.50
2019-03-20T02:59:08.116Z,-2.50
2019-03-20T03:01:38.781Z,-2.50
2019-03-20T03:04:09.479Z,-2.60
2019-03-20T03:06:40.074Z,-2.60
2019-03-20T03:09:10.813Z,-2.60
2019-03-20T03:11:41.473Z,-2.60
2019-03-20T03:14:12.134Z,-2.50
2019-03-20T03:16:42.729Z,-2.50
2019-03-20T03:19:13.327Z,-2.50
2019-03-20T03:21:43.960Z,-2.60
2019-03-20T03:24:14.552Z,-2.50
2019-03-20T03:26:45.178Z,-2.60
2019-03-20T03:29:15.753Z,-2.60
2019-03-20T03:31:46.387Z,-2.60
2019-03-20T03:34:17.061Z,-2.60
2019-03-20T03:36:48.056Z,-2.60
2019-03-20T03:39:18.644Z,-2.60
2019-03-20T03:41:49.295Z,-2.60
2019-03-20T03:44:19.904Z,-2.70
2019-03-20T03:46:50.516Z,-2.70
2019-03-20T03:49:21.147Z,-2.70
2019-03-20T03:51:51.946Z,-2.70
2019-03-20T03:54:22.575Z,-2.70
2019-03-20T03:56:53.404Z,-2.70
2019-03-20T03:59:24.038Z,-2.80
2019-03-20T04:01:54.633Z,-2.80
2019-03-20T04:04:25.397Z,-2.80
2019-03-20T04:06:56.002Z,-2.80
2019-03-20T04:09:26.618Z,-2.80
2019-03-20T04:11:57.247Z,-2.80
2019-03-20T04:14:27.905Z,-2.80
2019-03-20T04:16:58.558Z,-2.80
2019-03-20T04:19:29.275Z,-2.90
2019-03-20T04:22:00.035Z,-2.90
2019-03-20T04:24:30.721Z,-2.90
2019-03-20T04:27:01.348Z,-2.90
2019-03-20T04:29:31.990Z,-2.80
2019-03-20T04:32:02.585Z,-2.90
2019-03-20T04:34:33.234Z,-2.90
2019-03-20T04:37:03.833Z,-2.90
2019-03-20T04:39:34.451Z,-2.90
2019-03-20T04:42:05.133Z,-2.90
2019-03-20T04:44:35.872Z,-2.90
2019-03-20T04:47:06.485Z,-3.00
2019-03-20T04:49:37.073Z,-3.10
2019-03-20T04:52:07.672Z,-3.10
2019-03-20T04:54:38.369Z,-3.10
2019-03-20T04:57:08.986Z,-3.10
2019-03-20T04:59:39.568Z,-3.10
2019-03-20T05:02:10.209Z,-3.10
2019-03-20T05:04:40.872Z,-3.10
2019-03-20T05:07:11.546Z,-3.10
2019-03-20T05:09:42.157Z,-3.10
2019-03-20T05:12:12.783Z,-3.10
2019-03-20T05:14:43.429Z,-3.10
2019-03-20T05:17:14.027Z,-3.20
2019-03-20T05:19:44.670Z,-3.10
2019-03-20T05:22:15.316Z,-3.10
2019-03-20T05:24:46.065Z,-3.10
2019-03-20T05:27:16.649Z,-3.10
2019-03-20T05:29:47.341Z,-3.00
2019-03-20T05:32:19.744Z,-3.10
2019-03-20T05:34:50.542Z,-3.10
2019-03-20T05:37:21.187Z,-3.10
2019-03-20T05:39:51.867Z,-3.10
2019-03-20T05:42:22.506Z,-3.00
2019-03-20T05:44:53.289Z,-3.10
2019-03-20T05:47:23.958Z,-3.00
2019-03-20T05:49:54.615Z,-3.00
2019-03-20T05:52:25.279Z,-3.00
2019-03-20T05:54:55.912Z,-3.00
2019-03-20T05:57:26.512Z,-2.90
2019-03-20T05:59:57.130Z,-2.80
2019-03-20T06:02:27.969Z,-2.70
2019-03-20T06:04:58.629Z,-2.60
2019-03-20T06:07:29.256Z,-2.50
2019-03-20T06:10:02.083Z,-2.40
2019-03-20T06:12:32.694Z,-2.30
2019-03-20T06:15:03.279Z,-2.30
2019-03-20T06:17:34.059Z,-2.20
2019-03-20T06:20:04.839Z,-2.10
2019-03-20T06:22:35.493Z,-2.10
2019-03-20T06:25:06.731Z,-2.00
2019-03-20T06:27:37.417Z,-1.90
2019-03-20T06:30:10.568Z,-1.80
2019-03-20T06:32:41.189Z,-1.70
2019-03-20T06:35:11.831Z,-1.60
2019-03-20T06:37:42.451Z,-1.50
2019-03-20T06:40:13.647Z,-1.40
2019-03-20T06:42:44.248Z,-1.50
2019-03-20T06:45:14.975Z,-1.50
2019-03-20T06:47:45.672Z,-1.40
2019-03-20T06:50:16.702Z,-1.20
2019-03-20T06:52:47.323Z,-1.20
2019-03-20T06:55:17.946Z,-1.00
2019-03-20T06:57:48.688Z,-0.80
2019-03-20T07:01:12.384Z,-0.70
2019-03-20T07:04:48.603Z,-0.50
2019-03-20T07:07:43.635Z,-0.40
2019-03-20T07:10:51.059Z,0.00
2019-03-20T07:13:21.699Z,0.30
2019-03-20T07:15:52.757Z,0.40
2019-03-20T07:18:23.427Z,0.60
2019-03-20T07:20:54.093Z,0.90
2019-03-20T07:23:24.786Z,1.00
2019-03-20T07:25:55.421Z,1.20
2019-03-20T07:28:25.948Z,1.60
2019-03-20T07:30:56.597Z,1.40
2019-03-20T07:33:27.214Z,1.90
2019-03-20T07:35:57.946Z,2.20
2019-03-20T07:38:28.577Z,2.90
2019-03-20T07:40:59.161Z,2.80
2019-03-20T07:43:29.945Z,2.80
2019-03-20T07:46:00.510Z,2.80
2019-03-20T07:48:31.077Z,2.90
2019-03-20T07:51:01.732Z,3.30
2019-03-20T07:53:32.336Z,4.10
2019-03-20T07:56:02.914Z,4.00
2019-03-20T07:58:33.536Z,4.30
2019-03-20T08:01:04.143Z,4.90
2019-03-20T08:03:34.764Z,4.10
2019-03-20T08:06:05.820Z,4.60
2019-03-20T08:08:36.501Z,5.40
2019-03-20T08:11:07.138Z,5.30
2019-03-20T08:13:37.753Z,4.80
2019-03-20T08:16:08.339Z,4.50
2019-03-20T08:18:38.991Z,4.90
2019-03-20T08:21:09.625Z,5.70
2019-03-20T08:23:40.223Z,5.40
2019-03-20T08:26:10.838Z,4.80
2019-03-20T08:28:41.410Z,4.90
2019-03-20T08:31:11.991Z,4.50
2019-03-20T08:33:42.642Z,5.70
2019-03-20T08:36:13.258Z,5.90
2019-03-20T08:38:43.852Z,5.90
2019-03-20T08:41:14.462Z,6.00
2019-03-20T08:43:45.738Z,5.90
2019-03-20T08:46:16.424Z,6.20
2019-03-20T08:48:48.377Z,6.50
2019-03-20T08:51:19.085Z,6.90
2019-03-20T08:53:49.749Z,7.20
2019-03-20T08:56:20.360Z,7.30
2019-03-20T08:58:50.975Z,7.20
2019-03-20T09:01:28.601Z,7.40
2019-03-20T09:03:54.034Z,8.10
2019-03-20T09:06:25.008Z,7.90
2019-03-20T09:08:55.581Z,8.20
2019-03-20T09:11:26.181Z,8.30
2019-03-20T09:13:56.757Z,8.80
2019-03-20T09:16:27.441Z,8.60
2019-03-20T09:18:58.060Z,8.10
2019-03-20T09:21:28.735Z,8.30
2019-03-20T09:23:59.422Z,8.60
2019-03-20T09:26:30.129Z,9.10
2019-03-20T09:29:00.748Z,9.30
2019-03-20T09:31:31.374Z,9.70
2019-03-20T09:34:02.098Z,10.40
2019-03-20T09:36:42.683Z,10.60
2019-03-20T09:39:07.394Z,10.60
2019-03-20T09:41:39.569Z,10.20
2019-03-20T09:44:10.184Z,10.20
2019-03-20T09:46:40.811Z,10.80
2019-03-20T09:49:11.392Z,11.10
2019-03-20T09:51:42.059Z,10.60
2019-03-20T09:54:12.687Z,10.50
2019-03-20T09:56:43.318Z,10.30
2019-03-20T09:59:13.959Z,11.10
2019-03-20T10:01:44.582Z,11.80
2019-03-20T10:04:15.244Z,10.80
2019-03-20T10:06:45.823Z,10.40
2019-03-20T10:09:16.441Z,10.80
2019-03-20T10:11:47.140Z,11.40
2019-03-20T10:14:17.764Z,11.00
2019-03-20T10:16:48.415Z,10.90
2019-03-20T10:19:19.005Z,10.70
2019-03-20T10:21:49.677Z,10.40
2019-03-20T10:24:20.301Z,10.90
2019-03-20T10:26:50.921Z,11.40
2019-03-20T10:29:21.508Z,11.30
2019-03-20T10:31:52.189Z,10.90
2019-03-20T10:34:22.789Z,11.10
2019-03-20T10:36:53.415Z,10.60
2019-03-20T10:39:24.067Z,11.60
2019-03-20T10:41:54.676Z,11.10
2019-03-20T10:44:25.335Z,11.10
2019-03-20T10:46:56.004Z,11.40
2019-03-20T10:49:26.571Z,11.30
2019-03-20T10:51:57.267Z,11.40
2019-03-20T10:54:27.911Z,11.10
2019-03-20T10:56:58.616Z,11.10
2019-03-20T10:59:29.348Z,11.10
2019-03-20T11:02:00.987Z,10.80
2019-03-20T11:04:31.686Z,11.20
2019-03-20T11:07:02.322Z,11.60
2019-03-20T11:09:32.927Z,11.60
2019-03-20T11:12:03.607Z,11.20
2019-03-20T11:14:34.327Z,11.00
2019-03-20T11:17:05.103Z,11.10
2019-03-20T11:19:35.728Z,10.80
2019-03-20T11:22:18.025Z,11.60
2019-03-20T11:24:38.856Z,12.40
2019-03-20T11:27:09.443Z,12.10
2019-03-20T11:29:40.066Z,12.00
2019-03-20T11:32:10.843Z,12.60
2019-03-20T11:34:41.524Z,12.80
2019-03-20T11:37:12.295Z,12.70
2019-03-20T11:39:42.907Z,12.70
2019-03-20T11:42:13.550Z,12.90
2019-03-20T11:44:44.188Z,12.70
2019-03-20T11:47:15.071Z,12.20
2019-03-20T11:49:45.862Z,11.70
2019-03-20T11:52:16.498Z,11.60
2019-03-20T11:54:47.217Z,12.40
2019-03-20T11:57:18.209Z,12.20
2019-03-20T11:59:48.921Z,12.20
2019-03-20T12:02:28.008Z,12.00
2019-03-20T12:04:53.930Z,12.30
2019-03-20T12:07:24.290Z,11.80
2019-03-20T12:09:55.045Z,11.70
2019-03-20T12:12:25.647Z,11.60
2019-03-20T12:14:56.332Z,11.60
2019-03-20T12:17:26.936Z,11.60
2019-03-20T12:19:57.568Z,11.80
2019-03-20T12:22:28.228Z,11.80
2019-03-20T12:24:58.842Z,11.60
2019-03-20T12:27:29.560Z,11.20
2019-03-20T12:30:00.331Z,11.90
2019-03-20T12:32:30.945Z,12.10
2019-03-20T12:35:01.588Z,12.10
2019-03-20T12:37:32.287Z,11.90
2019-03-20T12:40:02.930Z,11.50
2019-03-20T12:42:33.545Z,11.10
2019-03-20T12:45:04.165Z,11.20
2019-03-20T12:47:34.795Z,11.40
2019-03-20T12:50:05.982Z,11.90
2019-03-20T12:52:36.653Z,11.60
2019-03-20T12:55:09.840Z,11.60
2019-03-20T12:57:40.530Z,12.00
2019-03-20T13:00:15.481Z,12.10
2019-03-20T13:02:47.098Z,12.00
2019-03-20T13:05:17.845Z,11.40
2019-03-20T13:07:48.574Z,11.20
2019-03-20T13:10:20.357Z,11.40
2019-03-20T13:12:51.485Z,11.20
2019-03-20T13:15:25.216Z,11.20
2019-03-20T13:17:56.161Z,11.60
2019-03-20T13:20:27.016Z,11.60
2019-03-20T13:23:07.441Z,11.50
2019-03-20T13:25:38.053Z,11.20
2019-03-20T13:28:08.799Z,11.20
2019-03-20T13:30:50.543Z,11.10
2019-03-20T13:33:25.750Z,11.00
2019-03-20T13:35:53.545Z,10.90
2019-03-20T13:38:24.224Z,11.10
2019-03-20T13:40:54.907Z,11.10
2019-03-20T13:43:25.574Z,11.00
2019-03-20T13:45:56.232Z,11.10
2019-03-20T13:48:27.032Z,11.30
2019-03-20T13:50:57.686Z,11.30
2019-03-20T13:53:28.414Z,11.30
2019-03-20T13:55:59.044Z,11.40
2019-03-20T13:58:29.643Z,11.10
2019-03-20T14:01:00.313Z,10.80
2019-03-20T14:03:31.088Z,10.60
2019-03-20T14:06:01.805Z,10.60
2019-03-20T14:08:32.478Z,10.50
2019-03-20T14:11:03.136Z,10.60
2019-03-20T14:13:33.735Z,10.70
2019-03-20T14:16:04.388Z,10.60
2019-03-20T14:18:35.243Z,10.40
2019-03-20T14:21:06.005Z,10.30
2019-03-20T14:23:36.697Z,10.20
2019-03-20T14:26:07.319Z,10.30
2019-03-20T14:28:37.941Z,10.20
2019-03-20T14:31:08.561Z,10.20
2019-03-20T14:33:39.178Z,10.20
2019-03-20T14:36:09.817Z,10.10
2019-03-20T14:38:40.451Z,10.00
2019-03-20T14:41:20.841Z,10.00
2019-03-20T14:43:43.496Z,10.00
2019-03-20T14:46:14.127Z,10.00
2019-03-20T14:48:44.757Z,9.90
2019-03-20T14:51:15.397Z,9.80
2019-03-20T14:53:46.086Z,9.70
2019-03-20T14:56:18.300Z,9.70
2019-03-20T14:58:49.056Z,9.60
2019-03-20T15:01:19.664Z,9.70
2019-03-20T15:03:50.268Z,9.70
2019-03-20T15:06:21.352Z,9.80
2019-03-20T15:08:52.022Z,9.90
2019-03-20T15:11:22.744Z,9.70
2019-03-20T15:13:53.501Z,9.50
2019-03-20T15:16:24.170Z,9.60
2019-03-20T15:18:54.937Z,9.70
2019-03-20T15:21:25.560Z,9.60
2019-03-20T15:23:56.185Z,9.60
2019-03-20T15:26:26.843Z,9.60
2019-03-20T15:28:57.684Z,9.60
2019-03-20T15:31:28.487Z,9.60
2019-03-20T15:33:59.141Z,9.50
2019-03-20T15:36:29.789Z,9.20
2019-03-20T15:39:00.401Z,9.00
2019-03-20T15:41:31.104Z,8.90
2019-03-20T15:44:02.667Z,9.20
2019-03-20T15:46:33.404Z,9.10
2019-03-20T15:49:04.082Z,9.20
2019-03-20T15:51:34.706Z,9.40
2019-03-20T15:54:05.570Z,9.40
2019-03-20T15:56:36.681Z,9.20
2019-03-20T15:59:07.335Z,9.40
2019-03-20T16:01:38.132Z,9.40
2019-03-20T16:04:09.136Z,9.30
2019-03-20T16:06:43.283Z,9.40
2019-03-20T16:09:15.695Z,9.20
2019-03-20T16:11:46.363Z,9.00
2019-03-20T16:14:18.051Z,8.90
2019-03-20T16:16:48.659Z,9.20
2019-03-20T16:19:19.306Z,9.10
2019-03-20T16:21:49.981Z,8.90
2019-03-20T16:24:20.775Z,8.80
2019-03-20T16:26:51.431Z,8.70
2019-03-20T16:29:22.057Z,8.70
2019-03-20T16:31:52.750Z,8.70
2019-03-20T16:34:23.384Z,8.70
2019-03-20T16:36:54.075Z,8.90
2019-03-20T16:39:24.698Z,8.90
2019-03-20T16:41:55.410Z,8.70
2019-03-20T16:44:26.096Z,8.70
2019-03-20T16:46:56.694Z,8.90
2019-03-20T16:49:27.359Z,8.70
2019-03-20T16:51:57.978Z,8.90
2019-03-20T16:54:28.658Z,8.80
2019-03-20T16:56:59.390Z,8.80
2019-03-20T16:59:30.177Z,8.60
2019-03-20T17:02:00.850Z,8.50
2019-03-20T17:04:31.532Z,8.60
2019-03-20T17:07:02.273Z,8.40
2019-03-20T17:09:32.900Z,8.50
2019-03-20T17:12:10.410Z,8.50
2019-03-20T17:14:41.835Z,8.40
2019-03-20T17:17:13.220Z,8.30
2019-03-20T17:19:43.865Z,8.30
2019-03-20T17:22:14.539Z,8.10
2019-03-20T17:24:45.221Z,8.10
2019-03-20T17:27:15.887Z,7.90
2019-03-20T17:29:46.536Z,7.80
2019-03-20T17:32:17.234Z,7.40
2019-03-20T17:34:47.896Z,7.00
2019-03-20T17:37:18.785Z,6.70
2019-03-20T17:39:49.430Z,6.90
2019-03-20T17:42:20.109Z,7.00
2019-03-20T17:44:50.802Z,7.30
2019-03-20T17:47:21.456Z,6.90
2019-03-20T17:49:52.150Z,6.60
2019-03-20T17:52:22.821Z,6.50
2019-03-20T17:54:53.500Z,6.50
2019-03-20T17:57:24.242Z,6.30
2019-03-20T17:59:54.893Z,6.20
2019-03-20T18:02:25.646Z,6.20
2019-03-20T18:04:56.839Z,6.20
2019-03-20T18:07:27.522Z,6.10
2019-03-20T18:09:58.526Z,6.00
2019-03-20T18:12:29.364Z,5.90
2019-03-20T18:15:00.002Z,5.80
2019-03-20T18:17:30.709Z,5.70
2019-03-20T18:20:01.571Z,5.70
2019-03-20T18:22:32.193Z,5.40
2019-03-20T18:25:02.888Z,5.30
2019-03-20T18:27:33.516Z,5.30
2019-03-20T18:30:04.422Z,5.20
2019-03-20T18:32:35.094Z,5.10
2019-03-20T18:35:06.783Z,5.10
2019-03-20T18:37:41.823Z,5.00
2019-03-20T18:40:14.548Z,4.90
2019-03-20T18:42:45.372Z,5.00
2019-03-20T18:45:17.909Z,4.90
2019-03-20T18:47:48.540Z,4.80
2019-03-20T18:50:20.031Z,4.80
2019-03-20T18:52:51.128Z,4.60
2019-03-20T18:55:22.104Z,4.60
2019-03-20T18:57:53.370Z,4.50
2019-03-20T19:00:25.846Z,4.40
2019-03-20T19:02:57.439Z,4.30
2019-03-20T19:06:14.362Z,4.20
2019-03-20T19:08:44.909Z,4.10
2019-03-20T19:11:15.695Z,4.10
2019-03-20T19:13:46.458Z,4.00
2019-03-20T19:16:17.186Z,4.00
2019-03-20T19:18:48.198Z,3.90
2019-03-20T19:21:19.066Z,3.80
2019-03-20T19:23:49.906Z,3.70
2019-03-20T19:26:20.622Z,3.70
2019-03-20T19:28:54.437Z,3.60
2019-03-20T19:31:25.579Z,3.50
2019-03-20T19:33:58.388Z,3.40
2019-03-20T19:36:29.247Z,3.40
2019-03-20T19:39:00.010Z,3.30
2019-03-20T19:41:30.658Z,3.30
2019-03-20T19:44:01.372Z,3.30
2019-03-20T19:46:32.112Z,3.20
2019-03-20T19:49:02.774Z,3.20
2019-03-20T19:51:33.591Z,3.20
2019-03-20T19:54:04.278Z,3.20
2019-03-20T19:56:44.538Z,3.10
2019-03-20T19:59:15.264Z,2.90
2019-03-20T20:01:46.055Z,2.90
2019-03-20T20:04:18.032Z,2.80
2019-03-20T20:06:48.691Z,2.80
2019-03-20T20:09:21.536Z,2.70
2019-03-20T20:11:55.700Z,2.60
2019-03-20T20:14:39.483Z,2.60
2019-03-20T20:17:10.174Z,2.60
2019-03-20T20:19:46.739Z,2.60
2019-03-20T20:22:24.107Z,2.60
2019-03-20T20:25:05.413Z,2.50
2019-03-20T20:27:47.355Z,2.50
2019-03-20T20:30:48.922Z,2.40
2019-03-20T20:33:45.851Z,2.20
2019-03-20T20:36:23.755Z,2.20
2019-03-20T20:39:04.591Z,2.20
2019-03-20T20:41:41.184Z,2.10
2019-03-20T20:44:12.526Z,2.00
2019-03-20T20:46:43.183Z,2.00
2019-03-20T20:49:13.885Z,2.00
2019-03-20T20:51:44.514Z,1.90
2019-03-20T20:54:15.246Z,1.90
2019-03-20T20:56:46.184Z,1.90
2019-03-20T20:59:16.875Z,1.80
2019-03-20T21:01:47.497Z,1.80
2019-03-20T21:04:18.190Z,1.70
2019-03-20T21:06:48.850Z,1.60
2019-03-20T21:09:19.479Z,1.60
2019-03-20T21:11:50.137Z,1.60
2019-03-20T21:14:20.834Z,1.50
2019-03-20T21:16:52.287Z,1.40
2019-03-20T21:19:39.987Z,1.30
2019-03-20T21:23:22.523Z,1.30
2019-03-20T21:25:54.200Z,1.30
2019-03-20T21:29:34.875Z,1.20
2019-03-20T21:32:21.079Z,1.20
2019-03-20T21:36:07.516Z,1.20
2019-03-20T21:38:39.004Z,1.10
2019-03-20T21:42:34.827Z,1.10
2019-03-20T21:45:37.904Z,1.10
2019-03-20T21:48:09.865Z,1.10
2019-03-20T21:51:17.493Z,1.00
2019-03-20T21:54:56.053Z,1.10
2019-03-20T21:58:02.000Z,1.10
2019-03-20T22:01:34.629Z,1.10
2019-03-20T22:04:06.454Z,1.20
2019-03-20T22:07:23.344Z,1.00
2019-03-20T22:10:57.873Z,0.90
2019-03-20T22:13:49.946Z,0.80
2019-03-20T22:17:24.564Z,0.70
2019-03-20T22:20:43.455Z,0.70
2019-03-20T22:23:54.335Z,0.60
2019-03-20T22:27:11.995Z,0.60
2019-03-20T22:29:43.477Z,0.50
2019-03-20T22:33:22.023Z,0.50
2019-03-20T22:36:01.637Z,0.40
2019-03-20T22:39:49.209Z,0.50
2019-03-20T22:43:12.655Z,0.40
2019-03-20T22:46:36.940Z,0.30
2019-03-20T22:50:09.577Z,0.30
2019-03-20T22:53:33.449Z,0.20
2019-03-20T22:57:08.441Z,0.20
2019-03-20T22:59:40.019Z,0.10
2019-03-20T23:02:40.266Z,0.10
2019-03-20T23:05:12.275Z,0.10
2019-03-20T23:07:43.669Z,0.00
2019-03-20T23:10:15.994Z,0.00
2019-03-20T23:12:47.424Z,-0.10
2019-03-20T23:15:19.295Z,0.00
2019-03-20T23:17:50.754Z,-0.10
2019-03-20T23:20:24.529Z,-0.10
2019-03-20T23:22:55.988Z,-0.10
2019-03-20T23:25:27.431Z,-0.10
2019-03-20T23:27:58.880Z,-0.20
2019-03-20T23:30:30.465Z,-0.20
2019-03-20T23:33:01.952Z,-0.20
2019-03-20T23:35:33.386Z,-0.30
2019-03-20T23:38:04.949Z,-0.30
2019-03-20T23:40:36.389Z,-0.40
2019-03-20T23:43:08.518Z,-0.50
2019-03-20T23:45:39.930Z,-0.50
2019-03-20T23:48:33.624Z,-0.50
2019-03-20T23:51:10.216Z,-0.50
2019-03-20T23:53:46.938Z,-0.50
2019-03-20T23:56:18.428Z,-0.60
2019-03-20T23:58:49.908Z,-0.60
